Time;durP1;ratioP1;P1;durP2;ratioP2;P2;SDS_P1;SDS_P2;PMS_P1;PMS_P2;Temp;Humidity;BMP_temperature;BMP_pressure;BME280_temperature;BME280_humidity;BME280_pressure;Samples;Min_cycle;Max_cycle;Signal;HPM_P1;HPM_P2
2023/09/26 00:01:51;;;;;;;28.98;19.45;;;18.30;99.90;;;;;;5033028;28;20484;-72
2023/09/26 00:07:54;;;;;;;30.27;18.83;;;18.30;99.90;;;;;;5084298;23;20058;-71
2023/09/26 00:10:20;;;;;;;32.53;20.42;;;18.30;99.90;;;;;;4972412;28;20027;-75
2023/09/26 00:12:47;;;;;;;30.48;20.58;;;18.30;99.90;;;;;;4939561;28;20353;-72
2023/09/26 00:15:13;;;;;;;30.98;20.17;;;18.30;99.90;;;;;;4975803;28;20054;-73
2023/09/26 00:17:39;;;;;;;30.92;18.90;;;18.30;99.90;;;;;;4975217;28;20474;-74
2023/09/26 00:20:18;;;;;;;31.05;19.00;;;18.30;99.90;;;;;;4975777;28;20082;-74
2023/09/26 00:22:44;;;;;;;28.42;19.70;;;18.30;99.90;;;;;;4974797;28;20034;-73
2023/09/26 00:25:13;;;;;;;30.25;17.85;;;18.20;99.90;;;;;;4972272;28;20031;-74
2023/09/26 00:27:39;;;;;;;26.45;16.80;;;18.20;99.90;;;;;;4971698;28;20050;-74
2023/09/26 00:30:08;;;;;;;25.05;16.63;;;18.30;99.90;;;;;;4978762;28;20062;-73
2023/09/26 00:32:35;;;;;;;28.13;16.98;;;18.30;99.90;;;;;;4980022;28;20018;-73
2023/09/26 00:35:01;;;;;;;29.73;17.90;;;18.30;99.90;;;;;;4976575;28;20030;-75
2023/09/26 00:37:28;;;;;;;23.73;15.70;;;18.30;99.90;;;;;;4976191;28;20545;-72
2023/09/26 00:39:54;;;;;;;26.63;15.88;;;18.30;99.90;;;;;;4942016;28;20038;-73
2023/09/26 00:42:20;;;;;;;26.25;16.73;;;18.30;99.90;;;;;;4966825;28;20034;-73
2023/09/26 00:44:46;;;;;;;24.23;15.68;;;18.30;99.90;;;;;;4960845;28;20023;-73
2023/09/26 00:47:12;;;;;;;26.35;15.32;;;18.20;99.90;;;;;;4948727;28;20066;-72
2023/09/26 00:49:38;;;;;;;24.30;16.27;;;18.20;99.90;;;;;;4959003;28;20039;-73
2023/09/26 00:52:05;;;;;;;21.75;15.20;;;18.20;99.90;;;;;;4974306;28;20478;-74
2023/09/26 00:54:32;;;;;;;21.65;14.82;;;18.30;99.90;;;;;;4960992;28;20045;-73
2023/09/26 00:56:58;;;;;;;20.98;13.90;;;18.20;99.90;;;;;;4977451;28;20544;-73
2023/09/26 00:59:24;;;;;;;20.88;13.40;;;18.30;99.90;;;;;;4974716;28;20381;-73
2023/09/26 01:01:51;;;;;;;24.77;15.27;;;18.30;99.90;;;;;;4947088;28;20042;-72
2023/09/26 01:04:18;;;;;;;19.50;12.32;;;18.30;99.90;;;;;;4971506;28;20022;-73
2023/09/26 01:06:44;;;;;;;22.02;14.43;;;18.20;99.90;;;;;;4971431;28;20109;-74
2023/09/26 01:09:12;;;;;;;22.42;13.82;;;18.30;99.90;;;;;;4947605;28;20047;-74
2023/09/26 01:11:38;;;;;;;19.80;13.02;;;18.30;99.90;;;;;;4954363;28;20031;-73
2023/09/26 01:14:04;;;;;;;18.88;13.25;;;18.30;99.90;;;;;;4977918;28;20117;-74
2023/09/26 01:16:30;;;;;;;19.80;13.20;;;18.30;99.90;;;;;;4963053;28;20031;-73
2023/09/26 01:18:56;;;;;;;20.48;13.60;;;18.30;99.90;;;;;;4974085;28;20098;-72
2023/09/26 01:21:23;;;;;;;21.80;13.10;;;18.20;99.90;;;;;;4958810;28;20126;-73
2023/09/26 01:23:56;;;;;;;21.27;14.02;;;18.20;99.90;;;;;;4975318;28;20023;-73
2023/09/26 01:26:23;;;;;;;22.08;14.88;;;18.20;99.90;;;;;;4958082;28;20035;-72
2023/09/26 01:28:49;;;;;;;23.27;14.30;;;18.30;99.90;;;;;;4961969;28;20313;-72
2023/09/26 01:31:15;;;;;;;23.75;14.88;;;18.20;99.90;;;;;;4957291;28;20038;-72
2023/09/26 01:33:41;;;;;;;28.05;15.23;;;18.20;99.90;;;;;;4957874;28;20023;-74
2023/09/26 01:36:08;;;;;;;24.55;16.17;;;18.20;99.90;;;;;;4974726;28;20034;-74
2023/09/26 01:38:34;;;;;;;24.92;15.68;;;18.10;99.90;;;;;;4977490;28;20027;-74
2023/09/26 01:40:59;;;;;;;24.63;14.88;;;18.10;99.90;;;;;;4976161;28;20123;-74
2023/09/26 01:43:26;;;;;;;22.95;15.45;;;18.20;99.90;;;;;;4975184;28;20019;-73
2023/09/26 01:45:54;;;;;;;25.85;16.20;;;18.20;99.90;;;;;;4975192;28;20101;-73
2023/09/26 01:48:20;;;;;;;28.98;16.70;;;18.20;99.90;;;;;;4959903;28;20027;-73
2023/09/26 01:50:46;;;;;;;26.55;16.05;;;18.30;99.90;;;;;;4977285;28;20398;-71
2023/09/26 01:53:13;;;;;;;23.55;15.90;;;18.30;99.90;;;;;;4958298;28;20505;-73
2023/09/26 01:55:40;;;;;;;24.15;15.35;;;18.30;99.90;;;;;;4975145;28;20680;-72
2023/09/26 01:58:06;;;;;;;23.83;15.95;;;18.30;99.90;;;;;;4948659;28;20524;-74
2023/09/26 02:00:32;;;;;;;24.75;16.80;;;18.30;99.90;;;;;;4965046;28;20043;-73
2023/09/26 02:02:58;;;;;;;23.25;15.75;;;18.30;99.90;;;;;;4974198;28;20027;-74
2023/09/26 02:05:24;;;;;;;22.17;15.40;;;18.20;99.90;;;;;;4974613;28;20057;-73
2023/09/26 02:07:50;;;;;;;25.65;17.05;;;18.20;99.90;;;;;;4960791;28;20929;-73
2023/09/26 02:10:17;;;;;;;25.35;16.90;;;18.30;99.90;;;;;;4958712;28;20532;-73
2023/09/26 02:12:49;;;;;;;25.15;18.08;;;18.30;99.90;;;;;;4955990;28;20037;-75
2023/09/26 02:15:15;;;;;;;25.73;16.73;;;18.30;99.90;;;;;;4961063;28;20122;-73
2023/09/26 02:17:43;;;;;;;27.98;17.60;;;18.20;99.90;;;;;;4959843;28;20257;-75
2023/09/26 02:20:14;;;;;;;23.80;14.90;;;18.30;99.90;;;;;;4958204;28;20090;-73
2023/09/26 02:22:42;;;;;;;29.00;16.98;;;18.30;99.90;;;;;;4943282;28;20039;-73
2023/09/26 02:25:10;;;;;;;26.88;17.95;;;18.10;99.90;;;;;;4954924;29;20039;-72
2023/09/26 02:27:36;;;;;;;27.75;17.08;;;18.00;99.90;;;;;;4943136;28;20034;-74
2023/09/26 02:30:04;;;;;;;23.60;16.13;;;18.10;99.90;;;;;;4975278;28;20442;-71
2023/09/26 02:32:33;;;;;;;28.02;17.73;;;18.10;99.90;;;;;;4945330;28;20026;-71
2023/09/26 02:34:59;;;;;;;26.73;16.60;;;18.20;99.90;;;;;;4973655;28;20031;-73
2023/09/26 02:37:25;;;;;;;28.25;18.02;;;18.10;99.90;;;;;;4973432;28;20446;-73
2023/09/26 02:39:51;;;;;;;27.95;17.55;;;18.10;99.90;;;;;;4975999;28;20026;-73
2023/09/26 02:42:17;;;;;;;28.45;17.10;;;18.00;99.90;;;;;;4959379;28;20397;-73
2023/09/26 02:44:43;;;;;;;24.15;17.27;;;18.00;99.90;;;;;;4950787;28;20034;-71
2023/09/26 02:47:08;;;;;;;30.38;18.15;;;18.00;99.90;;;;;;4955427;28;20400;-73
2023/09/26 02:49:34;;;;;;;27.33;17.98;;;18.00;99.90;;;;;;4944264;28;20026;-73
2023/09/26 02:52:00;;;;;;;30.90;17.67;;;17.90;99.90;;;;;;4973229;28;20029;-73
2023/09/26 02:54:26;;;;;;;25.58;16.65;;;17.90;99.90;;;;;;4957579;28;20118;-72
2023/09/26 02:56:52;;;;;;;25.00;16.00;;;17.90;99.90;;;;;;4971672;28;20398;-72
2023/09/26 02:59:18;;;;;;;26.48;15.98;;;18.00;99.90;;;;;;4973072;28;20050;-72
2023/09/26 03:01:43;;;;;;;25.58;16.20;;;18.00;99.90;;;;;;4959380;28;20031;-73
2023/09/26 03:04:09;;;;;;;26.65;18.08;;;18.00;99.90;;;;;;4973734;28;20474;-73
2023/09/26 03:06:35;;;;;;;28.33;16.80;;;18.00;99.90;;;;;;4973653;28;20027;-74
2023/09/26 03:09:01;;;;;;;30.60;17.85;;;18.00;99.90;;;;;;4973297;28;20078;-73
2023/09/26 03:11:27;;;;;;;36.50;17.08;;;18.00;99.90;;;;;;4974125;28;20030;-72
2023/09/26 03:13:52;;;;;;;28.20;15.43;;;17.80;99.90;;;;;;4973621;28;20414;-71
2023/09/26 03:16:18;;;;;;;28.65;18.05;;;17.90;99.90;;;;;;4977297;28;20023;-73
2023/09/26 03:18:45;;;;;;;40.88;17.40;;;17.90;99.90;;;;;;4956377;28;20075;-73
2023/09/26 03:21:13;;;;;;;27.52;17.85;;;17.90;99.90;;;;;;4965981;28;20097;-74
2023/09/26 03:23:39;;;;;;;42.83;18.27;;;17.90;99.90;;;;;;4956197;28;20475;-72
2023/09/26 03:26:13;;;;;;;26.42;16.67;;;17.90;99.90;;;;;;4973591;28;20018;-71
2023/09/26 03:28:39;;;;;;;41.17;17.77;;;17.80;99.90;;;;;;4956252;28;20027;-73
2023/09/26 03:31:06;;;;;;;48.22;17.38;;;17.70;99.90;;;;;;4955337;28;20542;-73
2023/09/26 03:33:32;;;;;;;33.13;15.13;;;17.80;99.90;;;;;;4956552;28;20023;-73
2023/09/26 03:36:00;;;;;;;34.35;15.15;;;17.70;99.90;;;;;;4956176;28;20417;-73
2023/09/26 03:38:26;;;;;;;49.28;15.65;;;17.70;99.90;;;;;;4955613;28;20053;-73
2023/09/26 03:41:03;;;;;;;37.20;15.20;;;17.70;99.90;;;;;;4973489;28;20505;-74
2023/09/26 03:43:29;;;;;;;47.10;17.25;;;17.70;99.90;;;;;;4973445;28;20030;-73
2023/09/26 03:46:03;;;;;;;51.50;16.33;;;17.70;99.90;;;;;;4973497;28;20113;-72
2023/09/26 03:48:29;;;;;;;33.00;15.20;;;17.70;99.90;;;;;;4972996;28;20176;-73
2023/09/26 03:50:56;;;;;;;48.47;16.90;;;17.70;99.90;;;;;;4973216;28;20105;-73
2023/09/26 03:53:21;;;;;;;46.05;16.52;;;17.70;99.90;;;;;;4973212;28;20371;-73
2023/09/26 03:55:54;;;;;;;73.30;20.25;;;17.70;99.90;;;;;;4973393;28;20034;-73
2023/09/26 03:58:21;;;;;;;52.70;16.27;;;17.60;99.90;;;;;;4972601;28;20037;-74
2023/09/26 04:00:47;;;;;;;44.58;19.77;;;17.60;99.90;;;;;;4972426;28;20062;-74
2023/09/26 04:03:12;;;;;;;32.17;15.13;;;17.60;99.90;;;;;;4973067;28;20508;-73
2023/09/26 04:05:39;;;;;;;34.33;15.57;;;17.50;99.90;;;;;;4972879;28;20085;-72
2023/09/26 04:08:06;;;;;;;46.85;18.70;;;17.50;99.90;;;;;;4972937;28;20047;-72
2023/09/26 04:10:38;;;;;;;41.47;15.05;;;17.50;99.90;;;;;;4961376;28;20038;-71
2023/09/26 04:13:05;;;;;;;25.55;14.88;;;17.50;99.90;;;;;;4973249;28;20114;-73
2023/09/26 04:15:30;;;;;;;42.50;18.23;;;17.60;99.90;;;;;;4972823;28;20030;-72
2023/09/26 04:17:56;;;;;;;22.85;14.70;;;17.60;99.90;;;;;;4976587;28;20030;-72
2023/09/26 04:20:23;;;;;;;32.58;17.05;;;17.70;99.90;;;;;;4977681;28;20030;-71
2023/09/26 04:22:49;;;;;;;35.00;16.50;;;17.70;99.90;;;;;;4972821;28;20489;-72
2023/09/26 04:25:15;;;;;;;31.67;14.90;;;17.70;99.90;;;;;;4973072;28;20058;-71
2023/09/26 04:27:41;;;;;;;36.35;14.32;;;17.70;99.90;;;;;;4972876;28;20042;-72
2023/09/26 04:30:08;;;;;;;47.25;15.20;;;17.70;99.90;;;;;;4972839;28;20030;-71
2023/09/26 04:32:35;;;;;;;21.70;12.88;;;17.70;99.90;;;;;;4972604;28;20031;-71
2023/09/26 04:35:01;;;;;;;39.55;13.75;;;17.60;99.90;;;;;;4972456;28;20027;-71
2023/09/26 04:37:27;;;;;;;26.25;13.75;;;17.60;99.90;;;;;;4972701;28;20041;-73
2023/09/26 04:39:53;;;;;;;23.92;12.93;;;17.60;99.90;;;;;;4972661;28;20023;-72
2023/09/26 04:42:18;;;;;;;30.25;13.30;;;17.70;99.90;;;;;;4972370;28;20135;-72
2023/09/26 04:44:44;;;;;;;34.45;14.63;;;17.70;99.90;;;;;;4972742;28;20102;-72
2023/09/26 04:47:10;;;;;;;22.67;12.32;;;17.60;99.90;;;;;;4973003;28;20031;-73
2023/09/26 04:49:36;;;;;;;27.60;13.75;;;17.70;99.90;;;;;;4972372;28;20023;-73
2023/09/26 04:52:03;;;;;;;28.63;13.45;;;17.70;99.90;;;;;;4955388;28;20051;-72
2023/09/26 04:54:29;;;;;;;23.00;13.75;;;17.70;99.90;;;;;;4972125;28;20045;-73
2023/09/26 04:56:55;;;;;;;27.58;13.35;;;17.70;99.90;;;;;;4972800;28;20027;-73
2023/09/26 04:59:21;;;;;;;19.70;12.68;;;17.70;99.90;;;;;;4972410;28;20110;-73
2023/09/26 05:01:47;;;;;;;33.60;13.27;;;17.70;99.90;;;;;;4972598;28;20042;-73
2023/09/26 05:04:13;;;;;;;27.63;14.38;;;17.70;99.90;;;;;;4970608;28;20023;-73
2023/09/26 05:06:39;;;;;;;23.10;12.90;;;17.70;99.90;;;;;;4972722;28;20031;-72
2023/09/26 05:09:08;;;;;;;16.88;11.13;;;17.80;99.90;;;;;;4971821;28;20039;-73
2023/09/26 05:11:34;;;;;;;24.80;13.10;;;17.80;99.90;;;;;;4972577;28;20026;-73
2023/09/26 05:14:00;;;;;;;19.10;12.50;;;17.80;99.90;;;;;;4972292;28;20426;-73
2023/09/26 05:16:26;;;;;;;36.33;16.65;;;17.80;99.90;;;;;;4974979;28;20031;-73
2023/09/26 05:18:52;;;;;;;21.75;13.52;;;17.80;99.90;;;;;;4976024;28;20098;-73
2023/09/26 05:21:18;;;;;;;21.80;14.05;;;17.90;99.90;;;;;;4975677;28;20129;-72
2023/09/26 05:23:44;;;;;;;37.30;17.38;;;17.90;99.90;;;;;;4974074;28;20490;-72
2023/09/26 05:26:12;;;;;;;28.48;12.57;;;17.90;99.90;;;;;;4979631;28;20477;-76
2023/09/26 05:28:38;;;;;;;17.05;11.43;;;17.90;99.90;;;;;;4977961;28;20045;-73
2023/09/26 05:31:04;;;;;;;21.23;12.80;;;18.00;99.90;;;;;;4975537;28;20118;-73
2023/09/26 05:33:31;;;;;;;18.98;11.50;;;18.00;99.90;;;;;;4967177;28;20022;-72
2023/09/26 05:35:56;;;;;;;21.52;13.32;;;18.00;99.90;;;;;;4975093;28;20041;-73
2023/09/26 05:38:23;;;;;;;25.05;14.55;;;18.10;99.90;;;;;;4975365;28;20031;-72
2023/09/26 05:40:50;;;;;;;25.05;13.18;;;18.10;99.90;;;;;;4975377;28;20141;-72
2023/09/26 05:43:16;;;;;;;21.38;13.35;;;18.10;99.90;;;;;;4986754;28;20018;-72
2023/09/26 05:45:42;;;;;;;20.05;12.45;;;18.10;99.90;;;;;;4978401;28;20045;-72
2023/09/26 05:48:08;;;;;;;24.83;12.60;;;18.20;99.90;;;;;;4975106;28;20035;-72
2023/09/26 05:50:33;;;;;;;19.65;11.18;;;18.20;99.90;;;;;;4975655;28;20078;-73
2023/09/26 05:53:00;;;;;;;21.42;13.40;;;18.20;99.90;;;;;;4975042;28;20485;-74
2023/09/26 05:55:27;;;;;;;26.75;12.63;;;18.10;99.90;;;;;;4977883;28;20045;-73
2023/09/26 05:57:52;;;;;;;25.38;14.65;;;18.10;99.90;;;;;;4975009;28;20454;-72
2023/09/26 06:00:19;;;;;;;22.00;12.25;;;18.10;99.90;;;;;;4974185;28;20035;-73
2023/09/26 06:02:45;;;;;;;21.17;13.18;;;18.20;99.90;;;;;;4975198;28;20064;-73
2023/09/26 06:05:14;;;;;;;23.23;13.30;;;18.30;99.90;;;;;;4977346;28;20726;-73
2023/09/26 06:07:41;;;;;;;20.67;13.73;;;18.30;99.90;;;;;;4976621;28;20128;-72
2023/09/26 06:10:10;;;;;;;24.70;15.43;;;18.40;99.90;;;;;;4957085;28;20031;-73
2023/09/26 06:12:37;;;;;;;24.90;15.80;;;18.50;99.90;;;;;;4956858;28;20117;-73
2023/09/26 06:15:09;;;;;;;27.58;15.68;;;18.60;99.90;;;;;;4977558;28;20058;-72
2023/09/26 06:17:35;;;;;;;29.40;17.75;;;18.60;99.90;;;;;;4973363;28;20114;-73
2023/09/26 06:20:01;;;;;;;28.75;17.00;;;18.50;99.90;;;;;;4974005;28;20133;-73
2023/09/26 06:22:27;;;;;;;26.00;16.77;;;18.60;99.90;;;;;;4973747;28;20038;-72
2023/09/26 06:24:53;;;;;;;29.05;15.38;;;18.60;99.90;;;;;;4978274;28;20027;-73
2023/09/26 06:27:19;;;;;;;23.90;14.85;;;18.60;99.90;;;;;;4974255;28;20019;-73
2023/09/26 06:29:45;;;;;;;27.40;14.93;;;18.60;99.90;;;;;;4974089;28;20027;-73
2023/09/26 06:32:11;;;;;;;24.73;15.80;;;18.70;99.90;;;;;;4973749;28;20114;-73
2023/09/26 06:34:39;;;;;;;26.15;17.02;;;18.80;99.90;;;;;;4976191;28;20037;-73
2023/09/26 06:37:05;;;;;;;25.25;14.77;;;18.90;99.90;;;;;;4979305;28;20029;-72
2023/09/26 06:39:31;;;;;;;33.58;19.92;;;18.90;99.90;;;;;;4972846;28;20027;-73
2023/09/26 06:41:57;;;;;;;34.70;19.98;;;19.00;99.90;;;;;;4976785;28;20784;-74
2023/09/26 06:44:23;;;;;;;28.10;18.52;;;19.00;99.90;;;;;;4974752;28;20019;-72
2023/09/26 06:46:49;;;;;;;28.90;17.85;;;19.20;99.90;;;;;;4974321;28;20019;-74
2023/09/26 06:49:15;;;;;;;33.38;18.70;;;19.10;99.90;;;;;;4974130;28;20408;-73
2023/09/26 06:51:40;;;;;;;31.20;19.30;;;19.20;99.90;;;;;;4974112;28;20059;-73
2023/09/26 06:54:06;;;;;;;36.00;21.58;;;19.20;99.90;;;;;;4975196;28;20034;-74
2023/09/26 06:56:32;;;;;;;34.08;20.70;;;19.20;99.90;;;;;;4973238;28;20479;-73
2023/09/26 06:58:58;;;;;;;30.38;19.83;;;19.40;99.90;;;;;;4973424;28;20042;-72
2023/09/26 07:01:24;;;;;;;30.17;19.23;;;19.50;99.90;;;;;;4972782;28;20479;-73
2023/09/26 07:03:49;;;;;;;28.83;19.70;;;19.60;99.90;;;;;;4955902;28;20133;-72
2023/09/26 07:06:16;;;;;;;31.30;22.02;;;19.50;99.90;;;;;;4956531;28;20487;-74
2023/09/26 07:08:43;;;;;;;34.85;24.05;;;19.60;99.90;;;;;;4972986;28;20051;-73
2023/09/26 07:11:10;;;;;;;30.08;22.00;;;19.70;99.90;;;;;;4970269;28;20070;-72
2023/09/26 07:13:36;;;;;;;33.42;22.23;;;19.80;99.90;;;;;;4972361;28;20035;-72
2023/09/26 07:16:04;;;;;;;37.08;21.17;;;20.00;99.90;;;;;;4973548;28;20483;-72
2023/09/26 07:18:34;;;;;;;31.13;20.85;;;20.10;99.90;;;;;;4973351;28;20038;-72
2023/09/26 07:21:04;;;;;;;35.05;22.50;;;20.20;99.90;;;;;;4973562;28;20057;-72
2023/09/26 07:23:35;;;;;;;33.95;22.40;;;20.20;99.90;;;;;;4956204;28;20035;-72
2023/09/26 07:26:20;;;;;;;38.80;24.80;;;20.30;99.90;;;;;;4956180;28;20038;-72
2023/09/26 07:28:47;;;;;;;33.70;24.27;;;20.40;99.90;;;;;;4973270;28;20059;-73
2023/09/26 07:31:16;;;;;;;37.50;24.35;;;20.50;99.90;;;;;;4954585;29;20066;-72
2023/09/26 07:33:43;;;;;;;35.83;25.10;;;20.70;99.90;;;;;;4954212;29;20027;-72
2023/09/26 07:36:09;;;;;;;34.10;23.25;;;20.80;99.90;;;;;;4968672;28;20482;-72
2023/09/26 07:38:35;;;;;;;34.70;25.42;;;20.90;99.90;;;;;;4972254;28;20031;-72
2023/09/26 07:41:02;;;;;;;28.65;22.90;;;21.10;99.90;;;;;;4973443;28;20386;-72
2023/09/26 07:43:35;;;;;;;31.17;22.20;;;21.00;99.90;;;;;;4973589;28;20042;-72
2023/09/26 07:46:09;;;;;;;38.72;21.33;;;21.10;99.90;;;;;;4972994;28;20041;-72
2023/09/26 07:48:37;;;;;;;32.22;21.45;;;21.10;99.90;;;;;;4973475;28;20063;-71
2023/09/26 07:51:04;;;;;;;28.42;21.17;;;21.10;99.90;;;;;;4973015;28;20035;-72
2023/09/26 07:53:30;;;;;;;33.42;21.92;;;20.90;99.90;;;;;;4973483;28;20548;-72
2023/09/26 07:55:56;;;;;;;29.27;21.17;;;20.90;99.90;;;;;;4972658;28;20019;-72
2023/09/26 07:58:22;;;;;;;31.50;23.23;;;21.00;99.90;;;;;;4955822;28;20110;-72
2023/09/26 08:00:48;;;;;;;29.85;21.17;;;21.30;99.90;;;;;;4972531;28;20181;-73
2023/09/26 08:03:14;;;;;;;28.73;21.35;;;21.70;99.90;;;;;;4972942;28;20470;-72
2023/09/26 08:05:40;;;;;;;28.13;21.45;;;21.80;99.90;;;;;;4973062;28;20026;-74
2023/09/26 08:08:06;;;;;;;28.63;20.38;;;21.70;99.90;;;;;;4972602;28;20054;-74
2023/09/26 08:10:37;;;;;;;32.90;21.13;;;22.00;99.90;;;;;;4973083;28;20129;-72
2023/09/26 08:13:03;;;;;;;33.95;21.48;;;22.10;99.90;;;;;;4972958;28;20054;-72
2023/09/26 08:15:31;;;;;;;30.08;20.55;;;22.10;99.90;;;;;;4972901;28;20101;-71
2023/09/26 08:17:58;;;;;;;33.83;22.88;;;22.10;99.90;;;;;;4972688;28;20051;-72
2023/09/26 08:20:26;;;;;;;34.92;22.77;;;22.30;99.90;;;;;;4973168;28;20462;-72
2023/09/26 08:22:52;;;;;;;34.03;22.63;;;22.20;99.90;;;;;;4973096;28;20039;-74
2023/09/26 08:25:18;;;;;;;29.92;22.02;;;22.40;99.90;;;;;;4972590;28;20090;-72
2023/09/26 08:27:44;;;;;;;33.80;22.00;;;22.60;99.90;;;;;;4972675;28;20030;-73
2023/09/26 08:30:11;;;;;;;36.47;22.50;;;22.60;99.90;;;;;;4972597;28;20355;-73
2023/09/26 08:32:38;;;;;;;30.75;23.65;;;22.90;99.90;;;;;;4973125;28;20035;-72
2023/09/26 08:35:06;;;;;;;30.13;22.20;;;23.00;99.90;;;;;;4972638;28;20019;-72
2023/09/26 08:37:35;;;;;;;28.88;21.75;;;22.60;99.90;;;;;;4972621;28;20034;-71
2023/09/26 08:40:06;;;;;;;30.88;21.25;;;22.70;99.90;;;;;;4972538;28;20521;-73
2023/09/26 08:42:37;;;;;;;30.92;21.25;;;22.70;99.90;;;;;;4972805;28;20070;-72
2023/09/26 08:45:04;;;;;;;30.00;22.42;;;22.80;99.90;;;;;;4960847;28;20082;-72
2023/09/26 08:47:30;;;;;;;30.08;21.23;;;;;;;;;;4972426;28;20078;-74
2023/09/26 08:49:57;;;;;;;26.58;18.05;;;;;;;;;;4974499;28;20034;-72
2023/09/26 08:52:27;;;;;;;26.83;17.60;;;;;;;;;;4975864;28;20506;-72
2023/09/26 08:54:53;;;;;;;29.10;19.67;;;23.50;99.90;;;;;;4976578;28;20387;-72
2023/09/26 08:57:21;;;;;;;29.73;19.52;;;23.40;99.90;;;;;;4975778;28;20015;-72
2023/09/26 08:59:47;;;;;;;24.77;17.75;;;23.70;99.90;;;;;;4975784;28;20031;-72
2023/09/26 09:02:14;;;;;;;30.10;18.70;;;23.30;99.90;;;;;;4976419;28;20479;-72
2023/09/26 09:04:43;;;;;;;26.77;17.15;;;23.50;99.90;;;;;;4976057;28;20031;-72
2023/09/26 09:07:10;;;;;;;30.45;17.40;;;23.40;99.90;;;;;;4975959;28;20105;-71
2023/09/26 09:09:37;;;;;;;24.38;18.48;;;23.50;99.90;;;;;;4975089;28;20078;-72
2023/09/26 09:12:19;;;;;;;28.77;17.20;;;23.70;99.90;;;;;;4958652;28;20387;-74
2023/09/26 09:14:45;;;;;;;31.02;18.98;;;23.30;99.90;;;;;;4975817;28;20030;-72
2023/09/26 09:17:11;;;;;;;26.73;18.23;;;24.10;99.90;;;;;;4969787;28;20038;-71
2023/09/26 09:19:54;;;;;;;26.50;18.25;;;23.60;99.90;;;;;;4975913;28;20026;-72
2023/09/26 09:22:24;;;;;;;28.30;17.55;;;23.70;99.90;;;;;;4968748;28;20035;-72
2023/09/26 09:24:54;;;;;;;28.98;18.63;;;23.50;99.90;;;;;;4975807;28;20501;-72
2023/09/26 09:27:42;;;;;;;26.30;17.48;;;;;;;;;;4958420;28;20355;-72
2023/09/26 09:30:12;;;;;;;26.63;17.33;;;24.20;99.90;;;;;;4975334;28;20046;-72
2023/09/26 09:32:42;;;;;;;23.45;17.20;;;24.20;99.90;;;;;;4971145;28;20041;-72
2023/09/26 09:35:15;;;;;;;23.60;16.05;;;24.20;99.90;;;;;;4975442;28;20061;-72
2023/09/26 09:37:43;;;;;;;23.98;14.85;;;24.20;99.90;;;;;;4975467;28;20065;-72
2023/09/26 09:40:09;;;;;;;23.73;17.20;;;24.30;99.90;;;;;;4975563;28;20035;-72
2023/09/26 09:42:35;;;;;;;25.05;14.55;;;24.30;99.90;;;;;;4974763;28;20034;-71
2023/09/26 09:45:04;;;;;;;23.20;14.00;;;24.10;99.90;;;;;;4958204;28;20049;-72
2023/09/26 09:47:34;;;;;;;23.42;14.10;;;24.10;99.90;;;;;;4958015;28;20031;-72
2023/09/26 09:50:01;;;;;;;22.60;13.07;;;24.10;99.90;;;;;;4975385;28;20026;-72
2023/09/26 09:52:30;;;;;;;20.30;12.98;;;23.90;98.70;;;;;;4957157;28;20034;-71
2023/09/26 09:54:58;;;;;;;22.38;14.52;;;24.00;97.80;;;;;;4975660;28;20022;-71
2023/09/26 09:57:28;;;;;;;21.40;12.57;;;23.90;99.30;;;;;;4974857;28;20038;-72
2023/09/26 09:59:55;;;;;;;24.42;15.07;;;23.40;99.70;;;;;;4974891;28;20565;-71
2023/09/26 10:02:22;;;;;;;30.98;14.43;;;23.50;99.90;;;;;;4984429;28;20030;-71
2023/09/26 10:04:48;;;;;;;23.58;14.05;;;23.80;99.90;;;;;;4957032;28;20109;-72
2023/09/26 10:07:17;;;;;;;22.83;14.82;;;23.80;99.60;;;;;;4975504;28;20402;-74
2023/09/26 10:09:44;;;;;;;27.35;14.88;;;24.00;99.90;;;;;;4976405;28;20052;-72
2023/09/26 10:12:12;;;;;;;25.38;15.32;;;24.20;99.90;;;;;;4975086;28;20066;-72
2023/09/26 10:14:38;;;;;;;21.00;13.18;;;24.30;99.90;;;;;;4974453;28;20534;-72
2023/09/26 10:17:06;;;;;;;22.63;14.32;;;24.20;99.90;;;;;;4974827;28;20014;-71
2023/09/26 10:19:34;;;;;;;19.60;12.48;;;24.20;99.90;;;;;;4974808;28;20057;-72
2023/09/26 10:22:20;;;;;;;26.45;12.70;;;24.20;99.90;;;;;;4974934;28;20035;-71
2023/09/26 10:24:50;;;;;;;19.83;12.95;;;24.30;99.90;;;;;;4974715;28;20048;-75
2023/09/26 10:27:38;;;;;;;21.85;11.77;;;24.30;99.90;;;;;;4957596;28;20030;-72
2023/09/26 10:30:06;;;;;;;20.60;13.00;;;24.30;99.90;;;;;;4974350;28;20027;-71
2023/09/26 10:32:35;;;;;;;19.55;11.20;;;24.30;99.90;;;;;;4974483;28;20019;-72
2023/09/26 10:35:13;;;;;;;25.08;12.07;;;24.30;99.90;;;;;;4974149;28;20057;-72
2023/09/26 10:37:48;;;;;;;18.83;11.48;;;24.30;99.90;;;;;;4974245;28;20031;-73
2023/09/26 10:40:17;;;;;;;14.70;9.27;;;24.50;99.90;;;;;;4967143;28;20478;-71
2023/09/26 10:42:45;;;;;;;15.13;9.63;;;24.60;99.90;;;;;;4974046;28;20035;-70
2023/09/26 10:45:12;;;;;;;15.68;9.38;;;24.50;99.90;;;;;;4974067;28;20019;-72
2023/09/26 10:47:40;;;;;;;21.90;10.13;;;24.40;99.90;;;;;;4956447;28;20038;-71
2023/09/26 10:50:12;;;;;;;16.25;9.68;;;24.50;99.90;;;;;;4974195;28;20023;-72
2023/09/26 10:52:46;;;;;;;15.10;7.63;;;24.40;99.90;;;;;;4974364;28;20030;-71
2023/09/26 10:55:20;;;;;;;17.75;9.85;;;24.50;99.90;;;;;;4973934;28;20414;-72
2023/09/26 10:57:49;;;;;;;16.35;8.82;;;24.50;99.90;;;;;;4973820;28;20042;-71
2023/09/26 11:00:15;;;;;;;17.20;8.77;;;24.50;99.90;;;;;;4974076;28;20031;-72
2023/09/26 11:02:46;;;;;;;16.63;8.05;;;24.50;99.90;;;;;;4956336;28;20073;-73
2023/09/26 11:05:14;;;;;;;16.67;8.63;;;24.50;99.90;;;;;;4974210;28;20023;-72
2023/09/26 11:07:42;;;;;;;16.45;8.57;;;24.50;99.90;;;;;;4972744;28;20031;-71
2023/09/26 11:10:12;;;;;;;13.25;8.05;;;24.60;99.90;;;;;;4974022;28;20042;-73
2023/09/26 11:12:38;;;;;;;17.92;8.18;;;24.50;99.90;;;;;;4972768;28;20085;-72
2023/09/26 11:15:05;;;;;;;16.20;8.07;;;24.50;99.90;;;;;;4973759;28;20049;-72
2023/09/26 11:17:35;;;;;;;11.63;7.35;;;24.50;99.90;;;;;;4973378;28;20018;-71
2023/09/26 11:20:05;;;;;;;15.77;7.80;;;24.40;99.90;;;;;;4973572;28;20059;-74
2023/09/26 11:22:42;;;;;;;16.35;7.68;;;24.50;99.90;;;;;;4973889;28;20030;-72
2023/09/26 11:25:08;;;;;;;14.63;7.47;;;24.50;99.90;;;;;;4973608;28;20041;-72
2023/09/26 11:27:43;;;;;;;12.60;7.43;;;24.60;99.90;;;;;;4973728;28;20027;-73
2023/09/26 11:30:17;;;;;;;11.00;5.65;;;24.60;99.90;;;;;;4973011;28;20050;-73
2023/09/26 11:32:50;;;;;;;14.52;5.88;;;24.70;99.90;;;;;;4973526;28;20103;-72
2023/09/26 11:35:21;;;;;;;8.95;5.22;;;24.70;97.10;;;;;;4960979;28;20038;-72
2023/09/26 11:37:51;;;;;;;21.95;6.53;;;24.80;96.80;;;;;;4973218;28;20027;-72
2023/09/26 11:40:35;;;;;;;10.55;5.43;;;25.00;96.00;;;;;;4973417;28;20031;-72
2023/09/26 11:43:03;;;;;;;8.50;5.13;;;25.20;94.90;;;;;;4973473;28;20046;-72
2023/09/26 11:45:29;;;;;;;11.63;5.55;;;25.30;93.50;;;;;;4973390;28;20026;-72
2023/09/26 11:47:59;;;;;;;10.25;5.45;;;25.20;91.30;;;;;;4973356;28;20023;-74
2023/09/26 11:50:27;;;;;;;10.27;5.35;;;25.20;91.40;;;;;;4972905;28;20391;-74
2023/09/26 11:52:57;;;;;;;11.80;5.00;;;25.20;92.00;;;;;;4972776;28;20023;-72
2023/09/26 11:55:23;;;;;;;11.27;5.88;;;25.30;91.60;;;;;;4973343;28;20031;-71
2023/09/26 11:57:50;;;;;;;11.35;5.55;;;25.40;92.00;;;;;;4973153;28;20074;-73
2023/09/26 12:00:20;;;;;;;15.43;5.13;;;25.40;91.20;;;;;;4973515;28;20058;-72
2023/09/26 12:02:50;;;;;;;11.38;5.30;;;25.60;91.40;;;;;;4972886;28;20479;-72
2023/09/26 12:05:20;;;;;;;16.38;6.13;;;25.60;90.30;;;;;;4973505;28;20019;-74
2023/09/26 12:07:50;;;;;;;19.60;6.25;;;;;;;;;;4972767;28;20055;-74
2023/09/26 12:10:17;;;;;;;15.38;5.60;;;25.70;84.00;;;;;;4973381;28;20371;-71
2023/09/26 12:12:42;;;;;;;9.73;5.20;;;25.90;87.70;;;;;;4972606;28;20158;-73
2023/09/26 12:15:19;;;;;;;11.75;5.93;;;26.00;84.50;;;;;;4973000;28;20118;-72
2023/09/26 12:17:45;;;;;;;11.40;5.60;;;26.00;83.30;;;;;;4973360;28;20506;-72
2023/09/26 12:20:12;;;;;;;11.20;6.10;;;26.10;84.80;;;;;;4972673;28;20085;-74
2023/09/26 12:22:38;;;;;;;13.43;5.70;;;26.10;81.20;;;;;;4973148;28;20035;-71
2023/09/26 12:25:04;;;;;;;17.13;6.45;;;26.20;84.40;;;;;;4974926;28;20033;-71
2023/09/26 12:27:30;;;;;;;11.70;5.25;;;26.20;80.60;;;;;;4977003;28;20035;-71
2023/09/26 12:29:56;;;;;;;13.50;5.53;;;26.30;83.90;;;;;;4976466;28;20491;-73
2023/09/26 12:32:22;;;;;;;14.45;5.80;;;26.20;83.50;;;;;;4976908;28;20101;-72
2023/09/26 12:34:48;;;;;;;10.75;5.40;;;26.20;83.30;;;;;;4976699;28;20026;-73
2023/09/26 12:37:14;;;;;;;11.50;6.13;;;26.10;83.40;;;;;;4976508;28;20050;-72